Disclaimer

Please do not use the information listed here in-flight or in-navigation, as they are not provided to us by the airports but are provided by volunteers, so they might be outdated.

Search


Regions


Airport information page

Radio informations:
Tower (TWR) - 118.1 MHz
Approach (APP) - 124.9 MHz

Airport informations:
Latitude: 15° 40' 44.59" S
Longitude: 034° 58' 26.45" E
Elevation: 2555 feet - 779 meters
Operating hours: Remarks
Operating agency: Civil government, landing fees and diplomatic clearance may be required
Timezone: UTC+2
Fuel: Jet A1, without icing nhibitor.

100/130 MIL Spec, low lead, aviation gasoline (BLUE)

Runway information:
10/28 - 7628 x 98 feet< - >2325 x 30 meters
15/33 - 4501 x 98 feet< - >1372 x 30 meters

Recent METARs:
FWCL 130400Z 17007KT 9999 FEW010 19/11 Q1020 NOSIG
FWCL 130400Z 17007KT 9999 FEW010 19/11 Q1020 NOSIG

Airport on the map: